createdAt,value
2022-09-28T00:01:00.335Z,7.10
2022-09-28T00:03:28.033Z,8.15
2022-09-28T00:06:00.118Z,7.60
2022-09-28T00:08:26.389Z,6.63
2022-09-28T00:10:56.048Z,8.75
2022-09-28T00:13:22.999Z,10.15
2022-09-28T00:15:59.617Z,7.32
2022-09-28T00:18:26.578Z,6.70
2022-09-28T00:20:59.709Z,7.68
2022-09-28T00:23:25.957Z,7.88
2022-09-28T00:25:52.177Z,10.00
2022-09-28T00:28:18.413Z,7.22
2022-09-28T00:30:44.632Z,8.77
2022-09-28T00:33:10.878Z,9.48
2022-09-28T00:35:37.184Z,6.53
2022-09-28T00:38:03.819Z,6.90
2022-09-28T00:40:30.103Z,11.02
2022-09-28T00:42:56.484Z,10.23
2022-09-28T00:45:25.346Z,7.07
2022-09-28T00:47:55.207Z,6.90
2022-09-28T00:50:33.452Z,7.35
2022-09-28T00:53:02.171Z,6.75
2022-09-28T00:55:40.041Z,6.07
2022-09-28T00:58:08.773Z,6.80
2022-09-28T01:00:35.154Z,7.28
2022-09-28T01:03:01.392Z,4.75
2022-09-28T01:05:27.902Z,5.30
2022-09-28T01:07:55.361Z,9.43
2022-09-28T01:10:21.741Z,8.02
2022-09-28T01:12:47.981Z,5.53
2022-09-28T01:15:15.521Z,4.55
2022-09-28T01:17:44.763Z,6.55
2022-09-28T01:20:11.029Z,4.45
2022-09-28T01:22:46.593Z,4.75
2022-09-28T01:35:01.581Z,8.02
2022-09-28T01:37:32.278Z,4.68
2022-09-28T01:40:01.463Z,5.00
2022-09-28T01:42:29.947Z,7.35
2022-09-28T01:45:00.142Z,3.10
2022-09-28T01:47:27.034Z,3.80
2022-09-28T01:49:57.649Z,5.80
2022-09-28T01:52:23.851Z,4.13
2022-09-28T01:54:53.106Z,8.50
2022-09-28T01:57:38.593Z,4.60
2022-09-28T02:00:07.015Z,4.80
2022-09-28T02:02:35.817Z,5.90
2022-09-28T02:05:07.203Z,6.15
2022-09-28T02:07:42.486Z,4.82
2022-09-28T02:10:13.134Z,5.60
2022-09-28T02:12:42.491Z,4.20
2022-09-28T02:15:20.491Z,3.95
2022-09-28T02:17:46.854Z,7.82
2022-09-28T02:20:13.341Z,4.43
2022-09-28T02:22:43.663Z,5.88
2022-09-28T02:25:29.766Z,6.63
2022-09-28T02:27:55.985Z,5.18
2022-09-28T02:30:22.306Z,4.05
2022-09-28T02:32:50.963Z,6.95
2022-09-28T02:35:18.309Z,7.13
2022-09-28T02:37:45.024Z,4.40
2022-09-28T02:40:15.959Z,7.10
2022-09-28T02:42:51.848Z,6.28
2022-09-28T02:45:37.216Z,5.35
2022-09-28T02:48:41.296Z,8.85
2022-09-28T02:51:07.707Z,6.40
2022-09-28T02:53:33.917Z,8.98
2022-09-28T02:56:12.107Z,8.52
2022-09-28T02:58:41.332Z,6.57
2022-09-28T03:01:07.645Z,7.22
2022-09-28T03:03:33.949Z,8.43
2022-09-28T03:06:03.796Z,9.93
2022-09-28T03:08:33.852Z,5.68
2022-09-28T03:11:02.431Z,5.07
2022-09-28T03:13:29.033Z,6.97
2022-09-28T03:16:08.560Z,5.72
2022-09-28T03:18:34.874Z,5.82
2022-09-28T03:21:01.556Z,6.15
2022-09-28T03:23:27.825Z,3.13
2022-09-28T03:25:54.738Z,5.38
2022-09-28T03:28:21.854Z,6.90
2022-09-28T03:30:48.099Z,6.72
2022-09-28T03:33:14.333Z,8.77
2022-09-28T03:35:40.673Z,2.42
2022-09-28T03:38:06.930Z,2.38
2022-09-28T03:40:33.217Z,2.60
2022-09-28T03:43:02.344Z,3.22
2022-09-28T03:45:28.636Z,2.40
2022-09-28T03:47:54.886Z,11.23
2022-09-28T03:50:21.284Z,4.88
2022-09-28T03:52:47.537Z,2.33
2022-09-28T03:55:13.829Z,3.22
2022-09-28T03:57:40.087Z,1.33
2022-09-28T04:00:06.573Z,2.60
2022-09-28T04:02:34.643Z,2.50
2022-09-28T04:05:00.967Z,2.40
2022-09-28T04:07:30.888Z,2.95
2022-09-28T04:09:57.556Z,3.13
2022-09-28T04:12:23.786Z,1.10
2022-09-28T04:14:50.076Z,2.65
2022-09-28T04:17:16.293Z,1.30
2022-09-28T04:19:42.594Z,2.22
2022-09-28T04:22:09.001Z,2.65
2022-09-28T04:24:35.266Z,3.15
2022-09-28T04:27:20.028Z,2.00
2022-09-28T04:29:47.453Z,2.70
2022-09-28T04:32:13.698Z,2.88
2022-09-28T04:34:43.911Z,1.65
2022-09-28T04:37:10.665Z,2.03
2022-09-28T04:39:36.895Z,1.73
2022-09-28T04:42:03.224Z,1.08
2022-09-28T04:44:29.450Z,1.75
2022-09-28T04:46:55.888Z,1.80
2022-09-28T04:49:22.380Z,6.10
2022-09-28T04:51:48.593Z,2.90
2022-09-28T04:54:14.824Z,1.30
2022-09-28T04:56:41.693Z,6.05
2022-09-28T04:59:07.946Z,1.00
2022-09-28T05:01:35.658Z,1.83
2022-09-28T05:04:02.013Z,3.33
2022-09-28T05:06:30.552Z,2.67
2022-09-28T05:08:57.454Z,2.45
2022-09-28T05:11:24.041Z,1.30
2022-09-28T05:13:50.395Z,1.48
2022-09-28T05:16:16.763Z,8.20
2022-09-28T05:18:43.330Z,1.15
2022-09-28T05:21:13.815Z,1.20
2022-09-28T05:23:40.491Z,1.00
2022-09-28T05:26:07.049Z,3.30
2022-09-28T05:28:33.705Z,2.63
2022-09-28T05:31:01.059Z,2.95
2022-09-28T05:33:27.887Z,1.52
2022-09-28T05:35:57.846Z,2.67
2022-09-28T05:38:25.602Z,1.30
2022-09-28T05:40:52.209Z,1.25
2022-09-28T05:43:18.468Z,2.80
2022-09-28T05:45:44.726Z,1.73
2022-09-28T05:48:11.118Z,4.05
2022-09-28T05:50:37.360Z,1.70
2022-09-28T05:53:05.635Z,1.92
2022-09-28T05:55:32.580Z,1.30
2022-09-28T05:58:02.795Z,2.13
2022-09-28T06:00:29.671Z,1.90
2022-09-28T06:03:00.150Z,1.85
2022-09-28T06:05:27.566Z,4.15
2022-09-28T06:07:57.869Z,1.38
2022-09-28T06:10:24.797Z,1.30
2022-09-28T06:12:54.725Z,1.00
2022-09-28T06:15:21.744Z,1.55
2022-09-28T06:17:48.278Z,1.33
2022-09-28T06:20:14.603Z,1.65
2022-09-28T06:22:40.862Z,2.67
2022-09-28T06:25:07.384Z,1.30
2022-09-28T06:27:34.294Z,1.98
2022-09-28T06:30:02.154Z,1.02
2022-09-28T06:32:29.639Z,1.92
2022-09-28T06:34:56.648Z,0.90
2022-09-28T06:37:22.939Z,2.70
2022-09-28T06:39:49.216Z,2.38
2022-09-28T06:42:18.578Z,2.22
2022-09-28T06:44:46.213Z,1.40
2022-09-28T06:47:12.459Z,1.50
2022-09-28T06:49:38.682Z,4.50
2022-09-28T06:52:05.026Z,2.17
2022-09-28T06:54:31.258Z,1.38
2022-09-28T06:56:57.519Z,1.95
2022-09-28T06:59:23.967Z,2.58
2022-09-28T07:01:50.216Z,3.08
2022-09-28T07:04:16.449Z,1.75
2022-09-28T07:06:48.643Z,3.08
2022-09-28T07:09:29.567Z,1.60
2022-09-28T07:11:58.869Z,3.25
2022-09-28T07:14:45.831Z,2.00
2022-09-28T07:17:14.183Z,3.08
2022-09-28T07:19:40.795Z,3.92
2022-09-28T07:22:07.148Z,2.15
2022-09-28T07:24:33.450Z,1.98
2022-09-28T07:26:59.746Z,1.88
2022-09-28T07:29:25.981Z,1.60
2022-09-28T07:31:53.295Z,3.83
2022-09-28T07:34:20.343Z,2.45
2022-09-28T07:36:46.601Z,3.35
2022-09-28T07:39:12.817Z,3.13
2022-09-28T07:41:39.808Z,3.03
2022-09-28T07:44:06.154Z,2.95
2022-09-28T07:46:33.373Z,3.25
2022-09-28T07:48:59.654Z,2.90
2022-09-28T07:51:25.935Z,3.30
2022-09-28T07:53:54.156Z,3.70
2022-09-28T07:56:20.657Z,2.78
2022-09-28T07:58:47.305Z,2.08
2022-09-28T08:01:16.716Z,4.72
2022-09-28T08:03:47.900Z,1.35
2022-09-28T08:06:16.932Z,3.35
2022-09-28T08:08:44.575Z,2.03
2022-09-28T08:11:12.033Z,1.33
2022-09-28T08:13:38.619Z,2.97
2022-09-28T08:16:05.784Z,2.50
2022-09-28T08:18:32.039Z,5.80
2022-09-28T08:21:16.907Z,2.53
2022-09-28T08:23:43.245Z,4.00
2022-09-28T08:26:13.398Z,4.53
2022-09-28T08:28:42.289Z,3.70
2022-09-28T08:31:08.704Z,2.05
2022-09-28T08:33:35.495Z,4.80
2022-09-28T08:36:02.168Z,2.40
2022-09-28T08:38:29.430Z,4.45
2022-09-28T08:41:14.524Z,2.50
2022-09-28T08:43:45.394Z,4.37
2022-09-28T08:46:13.387Z,1.92
2022-09-28T08:49:01.174Z,5.07
2022-09-28T08:52:05.779Z,1.55
2022-09-28T08:54:51.595Z,1.52
2022-09-28T08:57:22.367Z,0.95
2022-09-28T08:59:55.996Z,1.95
2022-09-28T09:02:33.210Z,1.48
2022-09-28T09:05:02.758Z,1.13
2022-09-28T09:07:29.015Z,1.45
2022-09-28T09:10:03.083Z,0.75
2022-09-28T09:12:38.283Z,1.80
2022-09-28T09:15:43.343Z,1.02
2022-09-28T09:18:19.992Z,1.48
2022-09-28T09:20:55.463Z,2.30
2022-09-28T09:23:28.322Z,0.50
2022-09-28T09:25:57.060Z,0.60
2022-09-28T09:28:23.317Z,1.77
2022-09-28T09:31:01.996Z,0.40
2022-09-28T09:33:28.223Z,4.60
2022-09-28T09:35:54.450Z,2.45
2022-09-28T09:38:27.813Z,0.82
2022-09-28T09:40:59.790Z,2.20
2022-09-28T09:43:29.369Z,1.05
2022-09-28T09:46:14.340Z,0.52
2022-09-28T09:48:48.124Z,0.85
2022-09-28T09:51:26.423Z,0.82
2022-09-28T09:53:59.943Z,1.23
2022-09-28T09:56:31.010Z,1.00
2022-09-28T09:58:59.737Z,0.25
2022-09-28T10:01:34.638Z,0.17
2022-09-28T10:04:02.272Z,1.45
2022-09-28T10:06:33.200Z,1.25
2022-09-28T10:09:18.688Z,0.50
2022-09-28T10:11:47.602Z,3.13
2022-09-28T10:14:22.540Z,1.20
2022-09-28T10:16:53.572Z,0.43
2022-09-28T10:19:21.388Z,1.08
2022-09-28T10:21:50.273Z,0.20
2022-09-28T10:24:28.670Z,0.98
2022-09-28T10:26:55.967Z,0.88
2022-09-28T10:29:24.797Z,0.30
2022-09-28T10:31:51.833Z,0.32
2022-09-28T10:34:19.641Z,2.20
2022-09-28T10:36:48.565Z,0.57
2022-09-28T10:39:35.107Z,1.25
2022-09-28T10:42:04.918Z,0.73
2022-09-28T10:44:33.724Z,0.20
2022-09-28T10:47:01.485Z,2.47
2022-09-28T10:49:30.431Z,3.13
2022-09-28T10:51:56.694Z,0.70
2022-09-28T10:54:24.625Z,0.47
2022-09-28T10:56:51.649Z,0.40
2022-09-28T10:59:30.068Z,0.80
2022-09-28T11:02:01.835Z,1.85
2022-09-28T11:04:29.464Z,0.65
2022-09-28T11:09:31.207Z,0.40
2022-09-28T11:11:58.703Z,0.60
2022-09-28T11:14:27.442Z,1.85
2022-09-28T11:17:12.587Z,0.90
2022-09-28T11:19:38.909Z,1.20
2022-09-28T11:22:20.214Z,0.50
2022-09-28T11:24:47.068Z,2.45
2022-09-28T11:27:19.495Z,0.50
2022-09-28T11:29:52.839Z,0.50
2022-09-28T11:32:20.062Z,1.17
2022-09-28T11:34:59.259Z,0.63
2022-09-28T11:37:35.147Z,1.15
2022-09-28T11:40:40.694Z,0.52
2022-09-28T11:43:30.537Z,0.90
2022-09-28T11:46:14.892Z,1.85
2022-09-28T11:48:47.111Z,1.30
2022-09-28T11:51:39.600Z,0.40
2022-09-28T11:54:14.804Z,0.60
2022-09-28T11:56:45.877Z,0.70
2022-09-28T11:59:20.310Z,3.28
2022-09-28T12:01:55.496Z,0.47
2022-09-28T12:04:24.693Z,2.58
2022-09-28T12:07:07.560Z,3.72
2022-09-28T12:09:56.815Z,1.30
2022-09-28T12:12:26.090Z,1.02
2022-09-28T12:14:54.132Z,0.73
2022-09-28T12:17:32.653Z,0.93
2022-09-28T12:20:05.426Z,0.20
2022-09-28T12:22:34.763Z,1.67
2022-09-28T12:25:01.849Z,1.67
2022-09-28T12:27:32.902Z,6.20
2022-09-28T12:30:13.376Z,4.45
2022-09-28T12:32:44.579Z,1.25
2022-09-28T12:35:15.008Z,4.75
2022-09-28T12:38:00.006Z,2.67
2022-09-28T12:40:37.010Z,3.37
2022-09-28T12:43:17.662Z,4.93
2022-09-28T12:46:11.614Z,3.33
2022-09-28T12:49:33.122Z,1.02
2022-09-28T12:52:00.328Z,1.63
2022-09-28T12:54:26.572Z,1.45
2022-09-28T12:56:55.867Z,1.17
2022-09-28T12:59:34.284Z,1.13
2022-09-28T13:02:19.355Z,0.70
2022-09-28T13:04:45.639Z,1.08
2022-09-28T13:07:27.718Z,0.50
2022-09-28T13:10:00.195Z,0.82
2022-09-28T13:12:41.827Z,1.40
2022-09-28T13:15:23.547Z,0.68
2022-09-28T13:18:06.173Z,0.95
2022-09-28T13:20:49.215Z,3.08
2022-09-28T13:23:21.467Z,0.73
2022-09-28T13:25:50.409Z,0.55
2022-09-28T13:28:21.283Z,1.95
2022-09-28T13:30:50.649Z,1.67
2022-09-28T13:33:19.939Z,1.45
2022-09-28T13:35:46.341Z,1.35
2022-09-28T13:38:16.263Z,0.65
2022-09-28T13:41:01.324Z,1.55
2022-09-28T13:43:33.301Z,0.60
2022-09-28T13:46:03.171Z,1.50
2022-09-28T13:49:01.697Z,1.92
2022-09-28T13:51:55.288Z,0.73
2022-09-28T13:54:41.558Z,0.73
2022-09-28T13:57:10.967Z,0.77
2022-09-28T13:59:46.859Z,0.77
2022-09-28T14:02:32.101Z,1.10
2022-09-28T14:05:17.078Z,0.40
2022-09-28T14:08:02.202Z,1.98
2022-09-28T14:10:49.351Z,0.83
2022-09-28T14:13:35.549Z,0.70
2022-09-28T14:16:20.843Z,2.90
2022-09-28T14:19:07.018Z,1.30
2022-09-28T14:21:44.938Z,0.30
2022-09-28T14:24:18.940Z,0.38
2022-09-28T14:26:51.345Z,0.68
2022-09-28T14:29:28.871Z,2.40
2022-09-28T14:31:56.720Z,1.30
2022-09-28T14:34:24.969Z,1.33
2022-09-28T14:37:10.077Z,0.50
2022-09-28T14:40:02.414Z,1.50
2022-09-28T14:42:28.837Z,0.57
2022-09-28T14:45:06.767Z,2.08
2022-09-28T14:47:38.190Z,1.45
2022-09-28T14:50:19.800Z,1.88
2022-09-28T14:52:51.370Z,0.50
2022-09-28T14:55:19.802Z,0.55
2022-09-28T14:57:51.958Z,0.43
2022-09-28T15:00:22.527Z,1.60
2022-09-28T15:02:52.305Z,0.82
2022-09-28T15:05:28.371Z,1.02
2022-09-28T15:07:55.045Z,1.45
2022-09-28T15:10:35.409Z,0.65
2022-09-28T15:13:03.294Z,1.83
2022-09-28T15:15:29.567Z,2.75
2022-09-28T15:18:16.519Z,1.05
2022-09-28T15:20:45.383Z,1.05
2022-09-28T15:23:26.000Z,2.97
2022-09-28T15:25:53.157Z,0.73
2022-09-28T15:28:24.252Z,1.63
2022-09-28T15:30:51.277Z,1.35
2022-09-28T15:33:43.373Z,0.63
2022-09-28T15:36:14.155Z,1.23
2022-09-28T15:38:41.376Z,1.70
2022-09-28T15:41:09.829Z,1.10
2022-09-28T15:43:37.791Z,2.22
2022-09-28T15:46:13.466Z,2.10
2022-09-28T15:48:48.107Z,2.25
2022-09-28T15:51:15.445Z,0.55
2022-09-28T15:54:04.120Z,1.00
2022-09-28T15:56:30.820Z,0.45
2022-09-28T15:59:10.933Z,1.85
2022-09-28T16:01:38.289Z,1.15
2022-09-28T16:04:23.224Z,0.80
2022-09-28T16:07:08.972Z,1.30
2022-09-28T16:09:53.497Z,1.17
2022-09-28T16:12:20.528Z,0.80
2022-09-28T16:14:50.378Z,1.48
2022-09-28T16:17:29.763Z,1.38
2022-09-28T16:19:55.987Z,1.10
2022-09-28T16:22:28.004Z,1.20
2022-09-28T16:24:57.514Z,0.93
2022-09-28T16:27:38.994Z,0.82
2022-09-28T16:30:11.800Z,0.77
2022-09-28T16:32:41.691Z,1.10
2022-09-28T16:35:10.818Z,1.88
2022-09-28T16:37:37.465Z,1.48
2022-09-28T16:40:04.272Z,2.35
2022-09-28T16:42:30.548Z,1.35
2022-09-28T16:44:56.822Z,0.73
2022-09-28T16:47:23.342Z,1.50
2022-09-28T16:49:49.713Z,1.13
2022-09-28T16:52:38.717Z,0.75
2022-09-28T16:58:04.632Z,0.77
2022-09-28T17:00:30.913Z,1.25
2022-09-28T17:02:58.292Z,0.63
2022-09-28T17:05:25.419Z,0.68
2022-09-28T17:07:59.114Z,1.98
2022-09-28T17:11:02.492Z,0.90
2022-09-28T17:13:33.195Z,0.60
2022-09-28T17:16:00.192Z,3.35
2022-09-28T17:18:26.509Z,1.13
2022-09-28T17:20:54.965Z,1.40
2022-09-28T17:23:21.509Z,1.92
2022-09-28T17:25:48.003Z,2.38
2022-09-28T17:28:22.016Z,1.58
2022-09-28T17:30:48.321Z,4.35
2022-09-28T17:33:15.059Z,1.10
2022-09-28T17:35:42.154Z,2.03
2022-09-28T17:38:10.955Z,1.58
2022-09-28T17:40:37.300Z,3.03
2022-09-28T17:43:05.615Z,3.72
2022-09-28T17:45:32.750Z,2.78
2022-09-28T17:47:59.764Z,3.90
2022-09-28T17:50:27.883Z,1.67
2022-09-28T17:52:54.363Z,4.07
2022-09-28T17:55:24.981Z,2.95
2022-09-28T17:57:51.440Z,4.38
2022-09-28T18:00:18.158Z,3.80
2022-09-28T18:02:44.942Z,3.83
2022-09-28T18:05:13.071Z,3.83
2022-09-28T18:07:40.173Z,4.40
2022-09-28T18:10:19.661Z,4.22
2022-09-28T18:12:45.973Z,2.83
2022-09-28T18:15:12.517Z,3.35
2022-09-28T18:17:39.036Z,3.45
2022-09-28T18:20:06.214Z,4.93
2022-09-28T18:22:32.635Z,3.85
2022-09-28T18:24:58.871Z,4.10
2022-09-28T18:27:25.178Z,3.05
2022-09-28T18:29:51.428Z,3.40
2022-09-28T18:32:17.818Z,4.65
2022-09-28T18:34:44.058Z,4.82
2022-09-28T18:37:10.534Z,7.25
2022-09-28T18:39:36.844Z,2.38
2022-09-28T18:42:03.146Z,3.88
2022-09-28T18:44:29.491Z,4.07
2022-09-28T18:46:55.735Z,2.72
2022-09-28T18:49:22.581Z,5.88
2022-09-28T18:51:48.897Z,2.85
2022-09-28T18:54:15.328Z,4.78
2022-09-28T18:56:41.570Z,3.50
2022-09-28T18:59:11.971Z,4.10
2022-09-28T19:01:38.750Z,3.90
2022-09-28T19:04:06.459Z,2.42
2022-09-28T19:06:34.206Z,2.80
2022-09-28T19:09:00.848Z,2.63
2022-09-28T19:11:27.510Z,2.53
2022-09-28T19:13:54.566Z,2.58
2022-09-28T19:16:22.219Z,4.50
2022-09-28T19:18:48.674Z,2.78
2022-09-28T19:21:15.101Z,3.00
2022-09-28T19:23:44.817Z,4.45
2022-09-28T19:26:15.762Z,3.83
2022-09-28T19:28:42.176Z,5.88
2022-09-28T19:31:09.198Z,4.07
2022-09-28T19:33:35.901Z,6.43
2022-09-28T19:36:03.588Z,3.30
2022-09-28T19:38:30.970Z,4.00
2022-09-28T19:40:57.970Z,4.68
2022-09-28T19:43:24.711Z,3.47
2022-09-28T19:45:55.859Z,2.97
2022-09-28T19:48:26.488Z,6.35
2022-09-28T19:51:00.017Z,6.07
2022-09-28T19:53:27.054Z,5.75
2022-09-28T19:55:53.975Z,5.38
2022-09-28T19:58:24.624Z,6.07
2022-09-28T20:00:51.308Z,6.00
2022-09-28T20:03:18.565Z,6.45
2022-09-28T20:05:45.274Z,6.45
2022-09-28T20:08:12.466Z,7.55
2022-09-28T20:10:38.912Z,4.60
2022-09-28T20:13:05.134Z,5.45
2022-09-28T20:15:31.426Z,4.45
2022-09-28T20:17:58.656Z,4.55
2022-09-28T20:20:26.740Z,5.55
2022-09-28T20:22:53.628Z,5.50
2022-09-28T20:25:19.911Z,6.72
2022-09-28T20:27:46.131Z,5.07
2022-09-28T20:30:12.982Z,5.57
2022-09-28T20:32:39.290Z,3.53
2022-09-28T20:35:05.905Z,5.18
2022-09-28T20:37:32.897Z,4.70
2022-09-28T20:40:01.438Z,5.00
2022-09-28T20:42:27.713Z,5.10
2022-09-28T20:44:53.947Z,5.57
2022-09-28T20:47:20.171Z,5.43
2022-09-28T20:49:46.434Z,6.32
2022-09-28T20:52:12.912Z,5.57
2022-09-28T20:54:40.593Z,6.63
2022-09-28T20:57:18.961Z,5.00
2022-09-28T20:59:45.391Z,4.53
2022-09-28T21:02:12.136Z,4.60
2022-09-28T21:04:38.872Z,4.97
2022-09-28T21:07:05.574Z,5.72
2022-09-28T21:09:32.405Z,4.18
2022-09-28T21:11:59.723Z,6.57
2022-09-28T21:14:26.688Z,5.95
2022-09-28T21:16:53.171Z,4.95
2022-09-28T21:19:20.485Z,5.22
2022-09-28T21:21:46.993Z,5.65
2022-09-28T21:24:13.227Z,7.22
2022-09-28T21:26:39.630Z,5.60
2022-09-28T21:29:06.813Z,4.68
2022-09-28T21:31:40.331Z,6.85
2022-09-28T21:34:07.136Z,7.90
2022-09-28T21:36:33.815Z,4.90
2022-09-28T21:39:00.034Z,5.70
2022-09-28T21:41:26.616Z,5.10
2022-09-28T21:43:52.999Z,4.95
2022-09-28T21:46:19.368Z,5.20
2022-09-28T21:48:45.645Z,6.95
2022-09-28T21:51:15.467Z,5.65
2022-09-28T21:53:42.526Z,5.53
2022-09-28T21:56:09.977Z,7.28
2022-09-28T21:58:36.281Z,8.88
2022-09-28T22:01:04.266Z,12.27
2022-09-28T22:03:30.964Z,5.85
2022-09-28T22:05:57.350Z,4.95
2022-09-28T22:08:24.117Z,7.07
2022-09-28T22:11:02.506Z,8.90
2022-09-28T22:13:29.330Z,4.47
2022-09-28T22:15:55.883Z,4.57
2022-09-28T22:18:22.149Z,7.80
2022-09-28T22:20:48.414Z,5.38
2022-09-28T22:23:14.666Z,5.40
2022-09-28T22:25:40.906Z,4.32
2022-09-28T22:28:07.140Z,6.50
2022-09-28T22:30:34.115Z,6.13
2022-09-28T22:33:00.358Z,5.85
2022-09-28T22:35:26.596Z,5.95
2022-09-28T22:37:52.808Z,6.20
2022-09-28T22:40:19.817Z,4.50
2022-09-28T22:42:46.080Z,8.55
2022-09-28T22:45:12.313Z,11.30
2022-09-28T22:47:38.644Z,8.30
2022-09-28T22:50:08.088Z,7.07
2022-09-28T22:52:34.326Z,5.95
2022-09-28T22:55:00.551Z,4.65
2022-09-28T22:57:26.776Z,6.63
2022-09-28T22:59:52.997Z,13.15
2022-09-28T23:02:19.289Z,5.63
2022-09-28T23:04:45.499Z,6.72
2022-09-28T23:07:11.725Z,10.00
2022-09-28T23:09:37.985Z,6.43
2022-09-28T23:12:04.214Z,7.60
2022-09-28T23:14:30.440Z,8.82
2022-09-28T23:16:56.662Z,7.07
2022-09-28T23:19:22.885Z,4.80
2022-09-28T23:21:49.104Z,9.00
2022-09-28T23:24:15.672Z,12.15
2022-09-28T23:26:41.893Z,6.10
2022-09-28T23:29:10.564Z,6.00
2022-09-28T23:31:38.764Z,10.23
2022-09-28T23:34:06.382Z,5.32
2022-09-28T23:36:33.119Z,10.98
2022-09-28T23:38:59.421Z,7.97
2022-09-28T23:41:25.641Z,6.85
2022-09-28T23:43:51.896Z,10.18
2022-09-28T23:46:20.921Z,5.55
2022-09-28T23:48:47.891Z,7.38
2022-09-28T23:51:14.148Z,5.43
2022-09-28T23:53:40.350Z,7.90
2022-09-28T23:56:06.624Z,7.13
2022-09-28T23:58:32.879Z,11.48
